Time;durP1;ratioP1;P1;durP2;ratioP2;P2;SDS_P1;SDS_P2;PMS_P1;PMS_P2;Temp;Humidity;BMP_temperature;BMP_pressure;BME280_temperature;BME280_humidity;BME280_pressure;Samples;Min_cycle;Max_cycle;Signal;HPM_P1;HPM_P2
2024/01/17 00:00:40;;;;;;;32.00;16.60;;;;;;;;;;103381;1295;544906;-73
2024/01/17 00:04:14;;;;;;;41.40;20.90;;;;;;;;;;104146;1289;545142;-73
2024/01/17 00:08:14;;;;;;;37.20;17.90;;;;;;;;;;104950;1294;548563;-72
2024/01/17 00:11:33;;;;;;;22.30;11.70;;;;;;;;;;103780;1292;545470;-72
2024/01/17 00:15:10;;;;;;;22.70;12.40;;;;;;;;;;103708;1292;544825;-73
2024/01/17 00:18:47;;;;;;;25.10;13.10;;;;;;;;;;103727;1289;545301;-73
2024/01/17 00:22:24;;;;;;;24.20;11.50;;;;;;;;;;103594;1290;544969;-72
2024/01/17 00:26:02;;;;;;;23.30;11.70;;;;;;;;;;103726;1292;545575;-72
2024/01/17 00:29:40;;;;;;;19.80;10.70;;;;;;;;;;103744;1291;545271;-71
2024/01/17 00:33:17;;;;;;;18.50;10.10;;;;;;;;;;103747;1293;545545;-71
2024/01/17 00:36:54;;;;;;;22.70;13.20;;;;;;;;;;103754;1290;544844;-72
2024/01/17 00:40:32;;;;;;;22.80;13.80;;;;;;;;;;103654;1291;544613;-74
2024/01/17 00:44:14;;;;;;;26.40;12.80;;;;;;;;;;103673;1290;544792;-72
2024/01/17 00:47:43;;;;;;;22.90;12.80;;;;;;;;;;103906;1288;544756;-72
2024/01/17 00:51:25;;;;;;;20.80;11.60;;;;;;;;;;103597;1292;544729;-73
2024/01/17 00:55:01;;;;;;;18.60;10.90;;;;;;;;;;103748;1290;545607;-71
2024/01/17 00:58:39;;;;;;;19.50;11.10;;;;;;;;;;103771;1289;545249;-74
2024/01/17 01:02:16;;;;;;;31.70;18.90;;;;;;;;;;104154;1286;545063;-72
2024/01/17 01:05:54;;;;;;;41.70;24.40;;;;;;;;;;103706;1289;544985;-73
2024/01/17 01:09:31;;;;;;;60.70;32.20;;;;;;;;;;103743;1291;545364;-73
2024/01/17 01:13:08;;;;;;;47.60;25.20;;;;;;;;;;104018;1290;544969;-74
2024/01/17 01:16:46;;;;;;;42.90;23.80;;;;;;;;;;103747;1291;545039;-72
2024/01/17 01:20:24;;;;;;;36.70;21.10;;;;;;;;;;103794;1292;545099;-73
2024/01/17 01:24:01;;;;;;;33.70;19.80;;;;;;;;;;103808;1289;545761;-73
2024/01/17 01:27:39;;;;;;;35.80;21.40;;;;;;;;;;103665;1291;545095;-73
2024/01/17 01:31:16;;;;;;;37.80;22.80;;;;;;;;;;103718;1295;544853;-74
2024/01/17 01:34:53;;;;;;;31.10;18.30;;;;;;;;;;103712;1289;544906;-73
2024/01/17 01:38:31;;;;;;;25.00;15.10;;;;;;;;;;103661;1291;545011;-73
2024/01/17 01:42:09;;;;;;;23.70;14.30;;;;;;;;;;103784;1288;545069;-73
2024/01/17 01:45:55;;;;;;;25.50;14.30;;;;;;;;;;103803;1289;545050;-72
2024/01/17 01:49:24;;;;;;;22.60;14.20;;;;;;;;;;103697;1291;545917;-72
2024/01/17 01:53:01;;;;;;;24.70;14.80;;;;;;;;;;103955;1291;545393;-71
2024/01/17 01:56:40;;;;;;;41.90;22.70;;;;;;;;;;103746;1292;545170;-71
2024/01/17 02:00:17;;;;;;;45.50;24.00;;;;;;;;;;103661;1290;544737;-72
2024/01/17 02:03:55;;;;;;;46.30;23.00;;;;;;;;;;103692;1290;544805;-72
2024/01/17 02:07:27;;;;;;;31.80;17.80;;;;;;;;;;103835;1288;544956;-71
2024/01/17 02:11:08;;;;;;;28.70;16.20;;;;;;;;;;103680;1295;545227;-73
2024/01/17 02:14:45;;;;;;;29.30;17.00;;;;;;;;;;103856;1289;545080;-74
2024/01/17 02:18:23;;;;;;;27.90;16.90;;;;;;;;;;103634;1291;546310;-72
2024/01/17 02:22:00;;;;;;;25.80;16.00;;;;;;;;;;103786;1292;545435;-72
2024/01/17 02:25:38;;;;;;;23.40;14.30;;;;;;;;;;104026;1292;545019;-74
2024/01/17 02:29:16;;;;;;;20.90;12.70;;;;;;;;;;103699;1293;545028;-74
2024/01/17 02:32:49;;;;;;;21.90;13.70;;;;;;;;;;103752;1292;546450;-72
2024/01/17 02:36:30;;;;;;;21.60;14.60;;;;;;;;;;103838;1288;544774;-71
2024/01/17 02:40:05;;;;;;;24.30;15.30;;;;;;;;;;103875;1289;546400;-72
2024/01/17 02:43:45;;;;;;;24.10;14.60;;;;;;;;;;103723;1292;544750;-72
2024/01/17 02:47:23;;;;;;;21.70;13.20;;;;;;;;;;103755;1289;545836;-73
2024/01/17 02:51:06;;;;;;;20.50;13.00;;;;;;;;;;103617;1294;548042;-71
2024/01/17 02:54:38;;;;;;;22.50;14.20;;;;;;;;;;103804;1289;544737;-71
2024/01/17 02:58:16;;;;;;;22.00;13.90;;;;;;;;;;103705;1289;545042;-72
2024/01/17 03:01:53;;;;;;;23.70;15.70;;;;;;;;;;103730;1295;544849;-73
2024/01/17 03:05:30;;;;;;;23.30;15.10;;;;;;;;;;103810;1289;545537;-71
2024/01/17 03:09:08;;;;;;;27.80;16.10;;;;;;;;;;103682;1291;544969;-73
2024/01/17 03:12:45;;;;;;;26.50;15.80;;;;;;;;;;104446;1282;544814;-71
2024/01/17 03:16:29;;;;;;;22.40;14.30;;;;;;;;;;103624;1291;547977;-72
2024/01/17 03:20:00;;;;;;;24.70;15.30;;;;;;;;;;103706;1294;546016;-72
2024/01/17 03:23:38;;;;;;;25.00;16.10;;;;;;;;;;103767;1295;545065;-72
2024/01/17 03:27:20;;;;;;;25.50;15.40;;;;;;;;;;103633;1291;547809;-72
2024/01/17 03:30:49;;;;;;;23.50;13.40;;;;;;;;;;103738;1301;544860;-72
2024/01/17 03:34:32;;;;;;;22.70;12.70;;;;;;;;;;103651;1288;548171;-73
2024/01/17 03:38:18;;;;;;;22.10;12.60;;;;;;;;;;103521;1292;548408;-72
2024/01/17 03:41:45;;;;;;;23.00;12.00;;;;;;;;;;103706;1289;545490;-72
2024/01/17 03:45:23;;;;;;;23.90;13.30;;;;;;;;;;103696;1291;545047;-72
2024/01/17 03:48:59;;;;;;;20.40;12.70;;;;;;;;;;103741;1289;545848;-75
2024/01/17 03:52:38;;;;;;;20.50;12.80;;;;;;;;;;103794;1289;544971;-73
2024/01/17 03:56:20;;;;;;;23.70;13.40;;;;;;;;;;103202;1294;547985;-73
2024/01/17 03:59:53;;;;;;;22.60;12.50;;;;;;;;;;103799;1301;544904;-72
2024/01/17 04:03:30;;;;;;;21.50;12.00;;;;;;;;;;103865;1289;546335;-73
2024/01/17 04:07:09;;;;;;;20.70;12.10;;;;;;;;;;103659;1289;545415;-72
2024/01/17 04:10:45;;;;;;;20.60;12.70;;;;;;;;;;103740;1289;545097;-72
2024/01/17 04:14:22;;;;;;;21.10;12.80;;;;;;;;;;103793;1289;545282;-72
2024/01/17 04:17:56;;;;;;;22.20;14.30;;;;;;;;;;103999;1289;544826;-71
2024/01/17 04:21:38;;;;;;;22.00;13.50;;;;;;;;;;103764;1289;545603;-72
2024/01/17 04:25:14;;;;;;;19.70;12.10;;;;;;;;;;103787;1288;545435;-74
2024/01/17 04:28:53;;;;;;;19.50;11.90;;;;;;;;;;103710;1292;545958;-72
2024/01/17 04:32:32;;;;;;;24.70;14.50;;;;;;;;;;103712;1290;545111;-71
2024/01/17 04:36:04;;;;;;;22.80;13.70;;;;;;;;;;103789;1288;544977;-74
2024/01/17 04:39:44;;;;;;;23.10;14.20;;;;;;;;;;104022;1286;544746;-72
2024/01/17 04:43:22;;;;;;;36.30;19.40;;;;;;;;;;103716;1292;544911;-72
2024/01/17 04:46:59;;;;;;;47.90;24.50;;;;;;;;;;103759;1289;545301;-72
2024/01/17 04:50:38;;;;;;;47.70;24.20;;;;;;;;;;103712;1289;545060;-73
2024/01/17 04:54:14;;;;;;;37.40;19.80;;;;;;;;;;103727;1290;544901;-72
2024/01/17 04:57:52;;;;;;;35.50;18.80;;;;;;;;;;103688;1292;544882;-73
2024/01/17 05:01:29;;;;;;;24.00;14.40;;;;;;;;;;103857;1289;544906;-72
2024/01/17 05:05:10;;;;;;;30.90;19.30;;;;;;;;;;103622;1291;545020;-74
2024/01/17 05:08:41;;;;;;;30.50;19.10;;;;;;;;;;103643;1294;545123;-71
2024/01/17 05:12:19;;;;;;;28.90;17.00;;;;;;;;;;103755;1289;544803;-73
2024/01/17 05:15:59;;;;;;;35.80;16.30;;;;;;;;;;103802;1289;544986;-73
2024/01/17 05:19:34;;;;;;;25.80;14.70;;;;;;;;;;104009;1287;545679;-72
2024/01/17 05:23:13;;;;;;;23.40;13.50;;;;;;;;;;103774;1291;545665;-72
2024/01/17 05:26:52;;;;;;;23.40;13.50;;;;;;;;;;103898;1300;545499;-73
2024/01/17 05:30:29;;;;;;;23.00;13.50;;;;;;;;;;103748;1288;544910;-73
2024/01/17 05:34:06;;;;;;;25.90;13.80;;;;;;;;;;103614;1293;544917;-70
2024/01/17 05:37:43;;;;;;;21.80;13.00;;;;;;;;;;103804;1292;545545;-71
2024/01/17 05:41:21;;;;;;;23.90;13.00;;;;;;;;;;103704;1290;545038;-72
2024/01/17 05:44:58;;;;;;;18.70;11.10;;;;;;;;;;103840;1289;544848;-71
2024/01/17 05:48:36;;;;;;;19.80;11.30;;;;;;;;;;103602;1292;544986;-72
2024/01/17 05:52:13;;;;;;;20.90;12.10;;;;;;;;;;104191;1286;544717;-71
2024/01/17 05:55:52;;;;;;;25.50;13.40;;;;;;;;;;103703;1291;544978;-74
2024/01/17 05:59:33;;;;;;;29.30;15.80;;;;;;;;;;103759;1289;546152;-72
2024/01/17 06:03:25;;;;;;;33.00;17.10;;;;;;;;;;104150;1288;548110;-72
2024/01/17 06:06:43;;;;;;;38.90;19.00;;;;;;;;;;103726;1291;544997;-72
2024/01/17 06:10:21;;;;;;;39.60;20.90;;;;;;;;;;103769;1290;544906;-72
2024/01/17 06:13:59;;;;;;;37.40;20.70;;;;;;;;;;103743;1288;545874;-72
2024/01/17 06:17:36;;;;;;;41.40;21.90;;;;;;;;;;103731;1302;545675;-72
2024/01/17 06:21:13;;;;;;;49.60;26.80;;;;;;;;;;103724;1289;545153;-74
2024/01/17 06:24:51;;;;;;;42.20;22.70;;;;;;;;;;103793;1289;544943;-71
2024/01/17 06:28:27;;;;;;;38.80;19.90;;;;;;;;;;103641;1298;544705;-72
2024/01/17 06:32:05;;;;;;;36.70;18.70;;;;;;;;;;103682;1295;545046;-72
2024/01/17 06:35:43;;;;;;;49.00;25.70;;;;;;;;;;103820;1289;545013;-71
2024/01/17 06:39:20;;;;;;;50.50;27.00;;;;;;;;;;103730;1292;544979;-72
2024/01/17 06:42:58;;;;;;;49.90;26.20;;;;;;;;;;104280;1286;544794;-71
2024/01/17 06:46:41;;;;;;;46.00;25.70;;;;;;;;;;103546;1292;548285;-75
2024/01/17 06:50:14;;;;;;;39.90;22.80;;;;;;;;;;103797;1290;545060;-72
2024/01/17 06:53:50;;;;;;;39.40;21.20;;;;;;;;;;103636;1292;544725;-74
2024/01/17 06:57:28;;;;;;;36.50;19.80;;;;;;;;;;103814;1289;544774;-72
2024/01/17 07:01:05;;;;;;;28.70;14.90;;;;;;;;;;103689;1293;545078;-72
2024/01/17 07:04:43;;;;;;;27.50;15.40;;;;;;;;;;103754;1291;544932;-72
2024/01/17 07:08:21;;;;;;;30.40;15.70;;;;;;;;;;103622;1290;544955;-72
2024/01/17 07:11:58;;;;;;;30.30;15.40;;;;;;;;;;103819;1289;545723;-74
2024/01/17 07:15:35;;;;;;;28.20;14.00;;;;;;;;;;103768;1292;545159;-73
2024/01/17 07:19:13;;;;;;;24.60;13.60;;;;;;;;;;103711;1292;544925;-72
2024/01/17 07:22:50;;;;;;;26.30;14.90;;;;;;;;;;103626;1292;544986;-72
2024/01/17 07:26:27;;;;;;;33.80;17.40;;;;;;;;;;103810;1289;545033;-71
2024/01/17 07:30:05;;;;;;;35.00;17.80;;;;;;;;;;104082;1286;545172;-73
2024/01/17 07:33:42;;;;;;;53.80;23.70;;;;;;;;;;103872;1288;544924;-72
2024/01/17 07:37:20;;;;;;;80.50;33.90;;;;;;;;;;103606;1295;545464;-73
2024/01/17 07:40:58;;;;;;;77.50;33.00;;;;;;;;;;103914;1289;544928;-71
2024/01/17 07:44:35;;;;;;;58.90;26.20;;;;;;;;;;103763;1293;544954;-72
2024/01/17 07:48:08;;;;;;;69.40;30.20;;;;;;;;;;103893;1290;544749;-72
2024/01/17 07:51:50;;;;;;;48.20;21.90;;;;;;;;;;103952;1290;545993;-72
2024/01/17 07:55:26;;;;;;;40.80;19.50;;;;;;;;;;103824;1292;545584;-72
2024/01/17 07:59:07;;;;;;;34.80;20.00;;;;;;;;;;104232;1283;544842;-74
2024/01/17 08:03:01;;;;;;;37.30;20.80;;;;;;;;;;103670;1292;547760;-74
2024/01/17 08:06:20;;;;;;;32.50;18.30;;;;;;;;;;103763;1292;545865;-72
2024/01/17 08:09:57;;;;;;;22.70;13.60;;;;;;;;;;103797;1290;545515;-73
2024/01/17 08:13:35;;;;;;;21.40;12.80;;;;;;;;;;103743;1290;545383;-72
2024/01/17 08:17:17;;;;;;;22.70;13.90;;;;;;;;;;103583;1295;547962;-73
2024/01/17 08:20:55;;;;;;;27.60;15.50;;;;;;;;;;103521;1291;548018;-72
2024/01/17 08:24:27;;;;;;;46.30;21.00;;;;;;;;;;103670;1295;544974;-71
2024/01/17 08:28:04;;;;;;;40.30;19.50;;;;;;;;;;104106;1285;546192;-71
2024/01/17 08:31:41;;;;;;;39.80;20.10;;;;;;;;;;103769;1291;544765;-71
2024/01/17 08:35:19;;;;;;;46.60;22.50;;;;;;;;;;103862;1293;545022;-71
2024/01/17 08:39:00;;;;;;;36.10;19.00;;;;;;;;;;103854;1288;544962;-72
2024/01/17 08:42:34;;;;;;;37.90;20.20;;;;;;;;;;104045;1291;544925;-74
2024/01/17 08:46:11;;;;;;;43.30;22.50;;;;;;;;;;103752;1292;544829;-72
2024/01/17 08:49:51;;;;;;;44.70;25.60;;;;;;;;;;103742;1292;546114;-72
2024/01/17 08:53:29;;;;;;;40.20;22.40;;;;;;;;;;103838;1289;544895;-72
2024/01/17 08:57:04;;;;;;;34.20;20.40;;;;;;;;;;103961;1289;545805;-71
2024/01/17 09:00:42;;;;;;;30.90;19.70;;;;;;;;;;103750;1292;544780;-72
2024/01/17 09:04:19;;;;;;;132.00;57.70;;;;;;;;;;103276;1294;545751;-72
2024/01/17 09:07:58;;;;;;;115.30;55.20;;;;;;;;;;103728;1289;544844;-75
2024/01/17 09:11:34;;;;;;;30.90;16.10;;;;;;;;;;103777;1290;545790;-73
2024/01/17 09:15:11;;;;;;;34.50;17.80;;;;;;;;;;103753;1289;545982;-72
2024/01/17 09:18:49;;;;;;;27.00;14.30;;;;;;;;;;103785;1289;544915;-73
2024/01/17 09:22:27;;;;;;;30.70;16.30;;;;;;;;;;103904;1289;545093;-72
2024/01/17 09:26:05;;;;;;;29.30;15.80;;;;;;;;;;103705;1301;545115;-72
2024/01/17 09:29:41;;;;;;;22.80;12.80;;;;;;;;;;103787;1289;546148;-72
2024/01/17 09:33:26;;;;;;;19.40;11.40;;;;;;;;;;103568;1292;548171;-71
2024/01/17 09:36:55;;;;;;;20.50;12.00;;;;;;;;;;103634;1298;545007;-72
2024/01/17 09:40:34;;;;;;;17.10;10.70;;;;;;;;;;103771;1291;545789;-73
2024/01/17 09:44:12;;;;;;;17.50;10.60;;;;;;;;;;103795;1289;544597;-72
2024/01/17 09:48:00;;;;;;;17.40;10.70;;;;;;;;;;103708;1289;548469;-73
2024/01/17 09:51:27;;;;;;;18.80;10.80;;;;;;;;;;103772;1291;544885;-73
2024/01/17 09:55:04;;;;;;;19.10;10.50;;;;;;;;;;103684;1293;545041;-73
2024/01/17 09:58:43;;;;;;;18.60;11.80;;;;;;;;;;103823;1288;544776;-74
2024/01/17 10:02:20;;;;;;;19.60;12.20;;;;;;;;;;103795;1289;544830;-73
2024/01/17 10:05:56;;;;;;;21.30;11.90;;;;;;;;;;103838;1290;544797;-73
2024/01/17 10:09:34;;;;;;;21.80;12.40;;;;;;;;;;103705;1294;544999;-73
2024/01/17 10:13:11;;;;;;;22.60;13.30;;;;;;;;;;103685;1291;547140;-73
2024/01/17 10:16:46;;;;;;;23.40;14.30;;;;;;;;;;103751;1289;545705;-73
2024/01/17 10:20:22;;;;;;;27.90;17.60;;;;;;;;;;103757;1289;545045;-74
2024/01/17 10:24:04;;;;;;;31.30;19.70;;;;;;;;;;103731;1292;545527;-73
2024/01/17 10:27:41;;;;;;;31.30;20.20;;;;;;;;;;103916;1288;544801;-73
2024/01/17 10:31:21;;;;;;;26.60;16.80;;;;;;;;;;103763;1289;544797;-73
2024/01/17 10:34:56;;;;;;;28.20;18.60;;;;;;;;;;103929;1289;544916;-73
2024/01/17 10:38:34;;;;;;;23.50;15.10;;;;;;;;;;103708;1289;544780;-72
2024/01/17 10:42:22;;;;;;;19.50;11.60;;;;;;;;;;103661;1290;548497;-73
2024/01/17 10:45:50;;;;;;;20.50;12.00;;;;;;;;;;103712;1302;545788;-73
2024/01/17 10:49:27;;;;;;;24.60;15.00;;;;;;;;;;103737;1288;546386;-73
2024/01/17 10:53:04;;;;;;;23.50;14.40;;;;;;;;;;103727;1290;544951;-73
2024/01/17 10:56:37;;;;;;;18.90;12.10;;;;;;;;;;103910;1289;544948;-73
2024/01/17 11:00:26;;;;;;;18.20;10.90;;;;;;;;;;103797;1289;545034;-73
2024/01/17 11:03:57;;;;;;;21.30;12.30;;;;;;;;;;103781;1289;545029;-72
2024/01/17 11:07:36;;;;;;;19.00;11.60;;;;;;;;;;103764;1292;544953;-73
2024/01/17 11:11:11;;;;;;;18.90;11.80;;;;;;;;;;103648;1291;545026;-72
2024/01/17 11:14:50;;;;;;;17.10;10.70;;;;;;;;;;103812;1294;545837;-73
2024/01/17 11:18:25;;;;;;;18.00;11.10;;;;;;;;;;103744;1288;545309;-72
2024/01/17 11:22:09;;;;;;;19.90;12.10;;;;;;;;;;103613;1291;549202;-73
2024/01/17 11:25:50;;;;;;;23.10;12.80;;;;;;;;;;103487;1303;548125;-73
2024/01/17 11:29:18;;;;;;;21.10;11.70;;;;;;;;;;103738;1292;545467;-73
2024/01/17 11:32:57;;;;;;;25.10;13.70;;;;;;;;;;104394;1282;545336;-73
2024/01/17 11:36:40;;;;;;;18.60;11.40;;;;;;;;;;103733;1290;545052;-71
2024/01/17 11:40:10;;;;;;;15.70;9.80;;;;;;;;;;103743;1289;545213;-73
2024/01/17 11:43:47;;;;;;;15.80;9.30;;;;;;;;;;103806;1289;546013;-73
2024/01/17 11:47:30;;;;;;;19.10;11.30;;;;;;;;;;103432;1292;546224;-73
2024/01/17 11:51:09;;;;;;;16.80;10.50;;;;;;;;;;104031;1289;545449;-73
2024/01/17 11:54:40;;;;;;;14.30;9.20;;;;;;;;;;103752;1291;545196;-73
2024/01/17 11:58:17;;;;;;;17.00;9.80;;;;;;;;;;103786;1291;545259;-73
2024/01/17 12:01:55;;;;;;;17.20;10.10;;;;;;;;;;103687;1291;545887;-73
2024/01/17 12:05:52;;;;;;;15.40;9.50;;;;;;;;;;103636;1291;548228;-73
2024/01/17 12:09:17;;;;;;;15.40;9.30;;;;;;;;;;103706;1289;545422;-73
2024/01/17 12:12:56;;;;;;;14.50;8.80;;;;;;;;;;104462;1282;548134;-73
2024/01/17 12:16:24;;;;;;;16.80;10.30;;;;;;;;;;103612;1302;545397;-73
2024/01/17 12:20:05;;;;;;;17.40;10.90;;;;;;;;;;103726;1289;545527;-73
2024/01/17 12:23:40;;;;;;;16.20;10.10;;;;;;;;;;103597;1291;544803;-74
2024/01/17 12:27:17;;;;;;;16.60;10.40;;;;;;;;;;103702;1289;544741;-73
2024/01/17 12:30:58;;;;;;;21.10;12.30;;;;;;;;;;103737;1291;545607;-73
2024/01/17 12:34:32;;;;;;;21.20;11.80;;;;;;;;;;103784;1291;544745;-74
2024/01/17 12:38:14;;;;;;;21.00;12.90;;;;;;;;;;103458;1291;547971;-74
2024/01/17 12:41:53;;;;;;;25.00;13.70;;;;;;;;;;103755;1291;545784;-74
2024/01/17 12:45:24;;;;;;;22.10;13.30;;;;;;;;;;103761;1303;545759;-73
2024/01/17 12:48:59;;;;;;;19.50;11.70;;;;;;;;;;103716;1290;544841;-72
2024/01/17 12:52:39;;;;;;;20.70;12.00;;;;;;;;;;103741;1294;545239;-74
2024/01/17 12:56:22;;;;;;;18.20;11.40;;;;;;;;;;103647;1295;547951;-73
2024/01/17 12:59:53;;;;;;;19.90;12.90;;;;;;;;;;103736;1295;544957;-73
2024/01/17 13:03:33;;;;;;;21.90;13.50;;;;;;;;;;103716;1291;544896;-74
2024/01/17 13:07:05;;;;;;;23.60;15.00;;;;;;;;;;103606;1296;545448;-74
2024/01/17 13:10:52;;;;;;;22.70;13.30;;;;;;;;;;103592;1291;545438;-73
2024/01/17 13:14:23;;;;;;;24.50;13.90;;;;;;;;;;103629;1289;545087;-74
2024/01/17 13:18:10;;;;;;;22.60;12.80;;;;;;;;;;103594;1293;546529;-74
2024/01/17 13:21:35;;;;;;;22.60;15.00;;;;;;;;;;103884;1292;544897;-73
2024/01/17 13:25:21;;;;;;;21.70;14.40;;;;;;;;;;103928;1293;544798;-74
2024/01/17 13:28:53;;;;;;;23.80;15.30;;;;;;;;;;103714;1289;545048;-73
2024/01/17 13:32:51;;;;;;;21.70;13.40;;;;;;;;;;103716;1294;548250;-74
2024/01/17 13:36:08;;;;;;;25.60;14.70;;;;;;;;;;103673;1295;545066;-72
2024/01/17 13:39:47;;;;;;;23.70;13.20;;;;;;;;;;103736;1292;545428;-73
2024/01/17 13:43:24;;;;;;;24.10;14.10;;;;;;;;;;103684;1291;545934;-73
2024/01/17 13:47:03;;;;;;;22.70;14.20;;;;;;;;;;103760;1292;544769;-73
2024/01/17 13:50:38;;;;;;;18.80;12.30;;;;;;;;;;103697;1295;544970;-72
2024/01/17 13:54:16;;;;;;;19.30;12.30;;;;;;;;;;103593;1291;545443;-73
2024/01/17 13:57:53;;;;;;;22.10;13.90;;;;;;;;;;103654;1298;544987;-73
2024/01/17 14:01:31;;;;;;;23.60;14.50;;;;;;;;;;103877;1289;545410;-73
2024/01/17 14:05:04;;;;;;;28.10;17.40;;;;;;;;;;103815;1293;544976;-72
2024/01/17 14:08:47;;;;;;;34.10;20.50;;;;;;;;;;104101;1289;545057;-72
2024/01/17 14:12:23;;;;;;;31.20;19.40;;;;;;;;;;103758;1292;545066;-72
2024/01/17 14:16:38;;;;;;;30.20;18.50;;;;;;;;;;104505;1285;545512;-72
2024/01/17 14:19:39;;;;;;;28.40;17.10;;;;;;;;;;103774;1289;545058;-72
2024/01/17 14:23:18;;;;;;;24.70;14.90;;;;;;;;;;103842;1289;545775;-72
2024/01/17 14:26:53;;;;;;;32.40;18.00;;;;;;;;;;103771;1292;544779;-73
2024/01/17 14:30:32;;;;;;;49.60;25.20;;;;;;;;;;103717;1292;545413;-72
2024/01/17 14:34:09;;;;;;;52.90;26.10;;;;;;;;;;103768;1289;545417;-73
2024/01/17 14:37:46;;;;;;;40.40;23.20;;;;;;;;;;103708;1291;545018;-72
2024/01/17 14:41:23;;;;;;;25.80;17.20;;;;;;;;;;103697;1291;545249;-73
2024/01/17 14:45:00;;;;;;;24.00;15.80;;;;;;;;;;103747;1295;544975;-72
2024/01/17 14:48:42;;;;;;;25.00;15.70;;;;;;;;;;103679;1291;548019;-73
2024/01/17 14:52:16;;;;;;;26.20;16.50;;;;;;;;;;103794;1288;544930;-72
2024/01/17 14:55:52;;;;;;;26.30;15.60;;;;;;;;;;103890;1295;544803;-72
2024/01/17 14:59:30;;;;;;;29.10;17.50;;;;;;;;;;103793;1292;545290;-72
2024/01/17 15:03:13;;;;;;;36.40;21.40;;;;;;;;;;103794;1288;548064;-72
2024/01/17 15:06:45;;;;;;;37.60;22.20;;;;;;;;;;103732;1289;545663;-72
2024/01/17 15:10:23;;;;;;;36.00;22.30;;;;;;;;;;103760;1289;545016;-73
2024/01/17 15:14:07;;;;;;;37.60;22.80;;;;;;;;;;103508;1292;547814;-73
2024/01/17 15:17:37;;;;;;;42.00;25.30;;;;;;;;;;103636;1291;546945;-73
2024/01/17 15:21:16;;;;;;;59.20;34.10;;;;;;;;;;103879;1288;545076;-73
2024/01/17 15:24:52;;;;;;;85.90;44.10;;;;;;;;;;103684;1289;545079;-73
2024/01/17 15:28:30;;;;;;;41.30;23.80;;;;;;;;;;103714;1290;545690;-72
2024/01/17 15:32:07;;;;;;;47.10;29.50;;;;;;;;;;104129;1288;544832;-72
2024/01/17 15:35:46;;;;;;;36.50;23.10;;;;;;;;;;103711;1292;545071;-72
2024/01/17 15:39:22;;;;;;;31.90;19.00;;;;;;;;;;103830;1289;544965;-73
2024/01/17 15:43:01;;;;;;;26.10;16.20;;;;;;;;;;104549;1282;545632;-71
2024/01/17 15:46:37;;;;;;;26.40;16.30;;;;;;;;;;103779;1293;544981;-72
2024/01/17 15:50:18;;;;;;;32.00;20.70;;;;;;;;;;103881;1295;544953;-72
2024/01/17 15:53:52;;;;;;;27.20;17.80;;;;;;;;;;103708;1289;546433;-73
2024/01/17 15:57:30;;;;;;;32.50;18.70;;;;;;;;;;103699;1289;545253;-71
2024/01/17 16:01:08;;;;;;;32.30;18.10;;;;;;;;;;103794;1288;545482;-73
2024/01/17 16:04:45;;;;;;;29.40;17.80;;;;;;;;;;103782;1292;544791;-71
2024/01/17 16:08:21;;;;;;;32.40;19.40;;;;;;;;;;103776;1289;545518;-71
2024/01/17 16:12:00;;;;;;;39.10;22.60;;;;;;;;;;103848;1289;544899;-71
2024/01/17 16:15:37;;;;;;;40.90;21.60;;;;;;;;;;103755;1302;544699;-72
2024/01/17 16:19:15;;;;;;;35.70;21.10;;;;;;;;;;103771;1290;545034;-71
2024/01/17 16:22:52;;;;;;;38.10;22.10;;;;;;;;;;103867;1288;545153;-71
2024/01/17 16:26:30;;;;;;;36.00;21.80;;;;;;;;;;103796;1292;545875;-72
2024/01/17 16:30:09;;;;;;;39.10;23.70;;;;;;;;;;103779;1295;545539;-71
2024/01/17 16:33:44;;;;;;;37.40;23.40;;;;;;;;;;103753;1293;544765;-71
2024/01/17 16:37:21;;;;;;;30.70;20.20;;;;;;;;;;103650;1299;545110;-72
2024/01/17 16:41:00;;;;;;;30.80;20.40;;;;;;;;;;103836;1289;544942;-71
2024/01/17 16:44:42;;;;;;;33.10;20.10;;;;;;;;;;103594;1292;548737;-72
2024/01/17 16:48:14;;;;;;;33.20;19.80;;;;;;;;;;103681;1289;544796;-72
2024/01/17 16:51:51;;;;;;;33.90;20.90;;;;;;;;;;103511;1295;545772;-71
2024/01/17 16:55:32;;;;;;;37.80;23.70;;;;;;;;;;103793;1295;545545;-71
2024/01/17 16:59:02;;;;;;;34.00;21.10;;;;;;;;;;103834;1290;544763;-71
2024/01/17 17:02:44;;;;;;;37.30;22.00;;;;;;;;;;103764;1290;545094;-71
2024/01/17 17:06:21;;;;;;;34.10;20.50;;;;;;;;;;103770;1292;545361;-71
2024/01/17 17:09:59;;;;;;;31.10;18.70;;;;;;;;;;103803;1289;546438;-71
2024/01/17 17:13:37;;;;;;;32.80;21.10;;;;;;;;;;103786;1294;544815;-71
2024/01/17 17:17:14;;;;;;;32.00;20.60;;;;;;;;;;103764;1289;545020;-71
2024/01/17 17:20:59;;;;;;;31.50;19.00;;;;;;;;;;103441;1291;548039;-71
2024/01/17 17:24:29;;;;;;;29.00;17.90;;;;;;;;;;103715;1289;544796;-71
2024/01/17 17:28:08;;;;;;;30.30;18.20;;;;;;;;;;104402;1282;545543;-72
2024/01/17 17:31:43;;;;;;;34.70;20.40;;;;;;;;;;103718;1289;544725;-71
2024/01/17 17:35:21;;;;;;;34.90;22.40;;;;;;;;;;103659;1292;545001;-72
2024/01/17 17:39:00;;;;;;;40.10;24.40;;;;;;;;;;103766;1290;545739;-71
2024/01/17 17:42:38;;;;;;;41.70;24.40;;;;;;;;;;103708;1289;544780;-71
2024/01/17 17:46:14;;;;;;;38.90;22.80;;;;;;;;;;103667;1292;544973;-72
2024/01/17 17:49:51;;;;;;;37.90;24.40;;;;;;;;;;103742;1292;544811;-72
2024/01/17 17:53:29;;;;;;;42.00;27.80;;;;;;;;;;103651;1291;544980;-71
2024/01/17 17:57:05;;;;;;;38.30;26.40;;;;;;;;;;103944;1290;545044;-71
2024/01/17 18:00:45;;;;;;;37.40;23.60;;;;;;;;;;103615;1291;544777;-71
2024/01/17 18:04:24;;;;;;;29.10;18.80;;;;;;;;;;103711;1292;546211;-73
2024/01/17 18:08:00;;;;;;;26.20;15.70;;;;;;;;;;103792;1289;544971;-73
2024/01/17 18:11:35;;;;;;;23.50;15.60;;;;;;;;;;103771;1291;544700;-71
2024/01/17 18:15:15;;;;;;;29.30;19.70;;;;;;;;;;103958;1291;545057;-72
2024/01/17 18:18:54;;;;;;;26.70;18.10;;;;;;;;;;103812;1289;544726;-72
2024/01/17 18:22:28;;;;;;;33.60;21.40;;;;;;;;;;103579;1292;545063;-71
2024/01/17 18:26:05;;;;;;;56.30;29.30;;;;;;;;;;103689;1295;544875;-72
2024/01/17 18:29:43;;;;;;;45.70;25.70;;;;;;;;;;103859;1290;544738;-72
2024/01/17 18:33:20;;;;;;;36.00;20.40;;;;;;;;;;103797;1291;545036;-72
2024/01/17 18:36:59;;;;;;;30.30;19.20;;;;;;;;;;103689;1289;545188;-71
2024/01/17 18:40:36;;;;;;;28.70;19.40;;;;;;;;;;103505;1298;544791;-72
2024/01/17 18:44:13;;;;;;;27.30;18.10;;;;;;;;;;103830;1289;544747;-71
2024/01/17 18:47:51;;;;;;;28.10;17.20;;;;;;;;;;103805;1289;545361;-71
2024/01/17 18:51:28;;;;;;;24.20;16.10;;;;;;;;;;103839;1290;544763;-73
2024/01/17 18:55:05;;;;;;;22.70;15.60;;;;;;;;;;103574;1293;544978;-72
2024/01/17 18:58:43;;;;;;;30.70;20.40;;;;;;;;;;103719;1292;545175;-71
2024/01/17 19:02:20;;;;;;;36.30;22.70;;;;;;;;;;103748;1289;545015;-72
2024/01/17 19:05:58;;;;;;;39.90;22.80;;;;;;;;;;103668;1297;545039;-72
2024/01/17 19:09:35;;;;;;;38.30;21.80;;;;;;;;;;104140;1285;545365;-71
2024/01/17 19:13:15;;;;;;;25.50;16.80;;;;;;;;;;103736;1291;544773;-70
2024/01/17 19:16:50;;;;;;;25.10;15.20;;;;;;;;;;103538;1298;544762;-71
2024/01/17 19:20:28;;;;;;;29.20;17.60;;;;;;;;;;104098;1285;545432;-71
2024/01/17 19:24:05;;;;;;;29.50;18.30;;;;;;;;;;103598;1291;545047;-72
2024/01/17 19:27:39;;;;;;;28.50;18.30;;;;;;;;;;103764;1289;544858;-71
2024/01/17 19:31:19;;;;;;;34.00;20.40;;;;;;;;;;103572;1292;544975;-73
2024/01/17 19:34:57;;;;;;;33.10;20.10;;;;;;;;;;103741;1289;544986;-74
2024/01/17 19:38:30;;;;;;;30.80;18.70;;;;;;;;;;103689;1292;544739;-71
2024/01/17 19:42:18;;;;;;;26.90;17.70;;;;;;;;;;103492;1292;547912;-73
2024/01/17 19:45:53;;;;;;;26.50;16.90;;;;;;;;;;103588;1295;544799;-73
2024/01/17 19:49:28;;;;;;;28.40;17.70;;;;;;;;;;103791;1289;544870;-72
2024/01/17 19:53:04;;;;;;;31.60;19.30;;;;;;;;;;103734;1289;544771;-72
2024/01/17 19:56:42;;;;;;;36.00;21.20;;;;;;;;;;103687;1292;545786;-73
2024/01/17 20:00:37;;;;;;;34.40;21.40;;;;;;;;;;103876;1288;544870;-71
2024/01/17 20:03:58;;;;;;;23.60;15.60;;;;;;;;;;103654;1289;545461;-75
2024/01/17 20:07:34;;;;;;;18.00;12.30;;;;;;;;;;103922;1289;545773;-72
2024/01/17 20:11:08;;;;;;;19.90;12.60;;;;;;;;;;103706;1292;544777;-74
2024/01/17 20:14:50;;;;;;;15.40;9.60;;;;;;;;;;103575;1296;544971;-73
2024/01/17 20:18:28;;;;;;;15.60;10.20;;;;;;;;;;103758;1291;545036;-74
2024/01/17 20:22:05;;;;;;;16.70;11.70;;;;;;;;;;103698;1289;544775;-73
2024/01/17 20:25:38;;;;;;;19.40;12.60;;;;;;;;;;103824;1292;544807;-74